createdAt,value
2019-02-10T00:01:30.201Z,93811.66
2019-02-10T00:03:57.752Z,93812.03
2019-02-10T00:06:25.330Z,93804.73
2019-02-10T00:08:52.920Z,93803.96
2019-02-10T00:11:20.329Z,93806.98
2019-02-10T00:13:49.320Z,93814.98
2019-02-10T00:16:20.809Z,93816.75
2019-02-10T00:18:48.492Z,93823.11
2019-02-10T00:21:15.944Z,93820.20
2019-02-10T00:23:43.348Z,93828.20
2019-02-10T00:26:10.916Z,93835.89
2019-02-10T00:28:38.367Z,93833.69
2019-02-10T00:31:05.854Z,93835.86
2019-02-10T00:33:33.255Z,93834.70
2019-02-10T00:36:00.770Z,93838.06
2019-02-10T00:38:28.261Z,93828.72
2019-02-10T00:40:55.663Z,93828.20
2019-02-10T00:43:23.054Z,93829.98
2019-02-10T00:45:50.477Z,93830.42
2019-02-10T00:48:17.894Z,93831.59
2019-02-10T00:50:45.376Z,93823.89
2019-02-10T00:53:12.851Z,93823.58
2019-02-10T00:55:40.232Z,93818.16
2019-02-10T00:58:07.778Z,93813.02
2019-02-10T01:00:35.226Z,93818.92
2019-02-10T01:03:02.672Z,93813.89
2019-02-10T01:05:30.080Z,93809.70
2019-02-10T01:07:57.784Z,93808.92
2019-02-10T01:10:25.927Z,93811.92
2019-02-10T01:12:53.574Z,93816.56
2019-02-10T01:15:20.970Z,93811.52
2019-02-10T01:17:48.404Z,93817.06
2019-02-10T01:20:15.828Z,93816.17
2019-02-10T01:22:43.233Z,93811.96
2019-02-10T01:25:10.655Z,93819.16
2019-02-10T01:27:38.107Z,93820.48
2019-02-10T01:30:07.538Z,93817.98
2019-02-10T01:32:35.039Z,93823.02
2019-02-10T01:35:02.445Z,93822.53
2019-02-10T01:37:29.948Z,93817.45
2019-02-10T01:39:57.424Z,93820.92
2019-02-10T01:42:24.833Z,93823.86
2019-02-10T01:44:52.245Z,93813.58
2019-02-10T01:47:19.656Z,93811.52
2019-02-10T01:49:47.160Z,93802.23
2019-02-10T01:52:14.622Z,93799.27
2019-02-10T01:54:42.028Z,93794.23
2019-02-10T01:57:09.533Z,93800.58
2019-02-10T01:59:37.041Z,93796.32
2019-02-10T02:02:04.467Z,93793.67
2019-02-10T02:04:31.887Z,93791.20
2019-02-10T02:06:59.301Z,93798.88
2019-02-10T02:09:26.980Z,93800.53
2019-02-10T02:11:54.417Z,93804.78
2019-02-10T02:14:21.946Z,93808.61
2019-02-10T02:16:49.407Z,93811.59
2019-02-10T02:19:16.827Z,93816.77
2019-02-10T02:21:44.334Z,93817.20
2019-02-10T02:24:11.763Z,93819.36
2019-02-10T02:26:39.172Z,93807.48
2019-02-10T02:29:06.696Z,93809.97
2019-02-10T02:31:34.149Z,93805.28
2019-02-10T02:34:01.568Z,93795.11
2019-02-10T02:36:29.017Z,93795.16
2019-02-10T02:38:56.469Z,93783.67
2019-02-10T02:41:24.040Z,93778.20
2019-02-10T02:43:51.483Z,93778.15
2019-02-10T02:46:18.986Z,93773.83
2019-02-10T02:48:47.455Z,93764.73
2019-02-10T02:51:14.976Z,93775.24
2019-02-10T02:53:42.358Z,93774.45
2019-02-10T02:56:09.775Z,93770.02
2019-02-10T02:58:37.255Z,93779.86
2019-02-10T03:01:04.678Z,93781.18
2019-02-10T03:03:32.099Z,93778.25
2019-02-10T03:05:59.503Z,93778.30
2019-02-10T03:08:27.027Z,93771.52
2019-02-10T03:10:54.470Z,93768.97
2019-02-10T03:13:22.027Z,93768.42
2019-02-10T03:15:49.564Z,93771.91
2019-02-10T03:18:17.021Z,93770.72
2019-02-10T03:20:44.420Z,93769.50
2019-02-10T03:23:12.073Z,93773.36
2019-02-10T03:25:39.558Z,93769.19
2019-02-10T03:28:07.018Z,93773.43
2019-02-10T03:30:34.533Z,93776.80
2019-02-10T03:33:01.981Z,93777.23
2019-02-10T03:35:29.439Z,93770.02
2019-02-10T03:37:56.943Z,93764.11
2019-02-10T03:40:24.688Z,93771.28
2019-02-10T03:42:52.265Z,93779.74
2019-02-10T03:45:19.866Z,93777.20
2019-02-10T03:47:47.619Z,93785.22
2019-02-10T03:50:15.204Z,93783.55
2019-02-10T03:52:42.716Z,93792.48
2019-02-10T03:55:10.366Z,93797.98
2019-02-10T03:57:37.782Z,93800.86
2019-02-10T04:00:05.294Z,93805.91
2019-02-10T04:02:32.834Z,93800.39
2019-02-10T04:05:00.357Z,93806.73
2019-02-10T04:07:35.870Z,93804.20
2019-02-10T04:09:58.359Z,93798.31
2019-02-10T04:12:25.795Z,93799.15
2019-02-10T04:14:53.231Z,93794.07
2019-02-10T04:17:20.664Z,93793.27
2019-02-10T04:19:48.116Z,93792.04
2019-02-10T04:22:15.555Z,93799.63
2019-02-10T04:24:43.022Z,93801.80
2019-02-10T04:27:10.487Z,93799.72
2019-02-10T04:29:37.986Z,93792.91
2019-02-10T04:32:05.554Z,93788.16
2019-02-10T04:34:32.988Z,93781.02
2019-02-10T04:37:00.369Z,93784.05
2019-02-10T04:39:27.931Z,93786.22
2019-02-10T04:41:55.341Z,93792.91
2019-02-10T04:44:22.796Z,93802.53
2019-02-10T04:46:50.239Z,93805.61
2019-02-10T04:49:17.805Z,93806.38
2019-02-10T04:51:45.248Z,93806.07
2019-02-10T04:54:12.684Z,93801.42
2019-02-10T04:56:40.197Z,93798.07
2019-02-10T04:59:07.892Z,93791.75
2019-02-10T05:01:35.415Z,93797.22
2019-02-10T05:04:02.969Z,93801.88
2019-02-10T05:06:30.546Z,93811.19
2019-02-10T05:08:58.117Z,93807.83
2019-02-10T05:11:25.728Z,93809.50
2019-02-10T05:13:53.299Z,93819.19
2019-02-10T05:16:20.727Z,93823.81
2019-02-10T05:18:48.329Z,93828.89
2019-02-10T05:21:15.820Z,93827.22
2019-02-10T05:23:43.213Z,93821.71
2019-02-10T05:26:11.052Z,93821.70
2019-02-10T05:28:38.749Z,93830.59
2019-02-10T05:31:06.327Z,93832.27
2019-02-10T05:33:33.784Z,93833.11
2019-02-10T05:36:01.370Z,93833.08
2019-02-10T05:38:28.889Z,93833.48
2019-02-10T05:40:56.303Z,93837.26
2019-02-10T05:43:23.730Z,93834.72
2019-02-10T05:45:51.288Z,93837.29
2019-02-10T05:48:18.873Z,93842.80
2019-02-10T05:50:46.307Z,93842.80
2019-02-10T05:53:13.841Z,93838.09
2019-02-10T05:55:41.500Z,93841.44
2019-02-10T05:58:09.169Z,93841.43
2019-02-10T06:00:36.718Z,93842.73
2019-02-10T06:03:04.236Z,93847.82
2019-02-10T06:05:31.978Z,93842.73
2019-02-10T06:07:59.653Z,93843.53
2019-02-10T06:10:27.526Z,93854.94
2019-02-10T06:12:55.338Z,93863.79
2019-02-10T06:15:23.016Z,93857.44
2019-02-10T06:17:50.755Z,93862.88
2019-02-10T06:20:18.433Z,93859.54
2019-02-10T06:22:46.255Z,93853.58
2019-02-10T06:25:14.502Z,93855.23
2019-02-10T06:27:42.349Z,93868.30
2019-02-10T06:30:10.564Z,93866.48
2019-02-10T06:32:38.274Z,93867.76
2019-02-10T06:35:06.561Z,93867.77
2019-02-10T06:37:34.271Z,93855.42
2019-02-10T06:40:01.909Z,93861.20
2019-02-10T06:42:30.284Z,93865.02
2019-02-10T06:44:58.113Z,93861.26
2019-02-10T06:47:26.140Z,93860.78
2019-02-10T06:49:53.881Z,93866.91
2019-02-10T06:52:21.526Z,93874.13
2019-02-10T06:54:53.122Z,93866.36
2019-02-10T06:57:22.690Z,93863.17
2019-02-10T07:00:15.733Z,93862.35
2019-02-10T07:03:27.469Z,93865.16
2019-02-10T07:05:55.758Z,93872.42
2019-02-10T07:08:30.367Z,93862.42
2019-02-10T07:10:53.235Z,93869.46
2019-02-10T07:13:35.608Z,93871.02
2019-02-10T07:16:53.073Z,93869.70
2019-02-10T07:20:14.251Z,93869.51
2019-02-10T07:23:21.375Z,93872.19
2019-02-10T07:25:51.280Z,93869.95
2019-02-10T07:29:06.941Z,93865.82
2019-02-10T07:31:58.564Z,93866.52
2019-02-10T07:35:02.633Z,93859.94
2019-02-10T07:37:52.471Z,93864.44
2019-02-10T07:41:08.474Z,93857.87
2019-02-10T07:44:01.905Z,93867.66
2019-02-10T07:47:09.576Z,93863.50
2019-02-10T07:50:01.113Z,93866.75
2019-02-10T07:53:10.715Z,93857.22
2019-02-10T07:56:17.414Z,93859.09
2019-02-10T07:59:25.789Z,93846.05
2019-02-10T08:02:31.887Z,93843.68
2019-02-10T08:05:28.592Z,93846.92
2019-02-10T08:08:46.657Z,93854.19
2019-02-10T08:12:06.961Z,93859.64
2019-02-10T08:14:43.559Z,93858.83
2019-02-10T08:17:49.011Z,93860.64
2019-02-10T08:20:42.903Z,93857.06
2019-02-10T08:23:27.278Z,93861.34
2019-02-10T08:26:24.797Z,93855.48
2019-02-10T08:29:24.083Z,93856.19
2019-02-10T08:32:14.943Z,93853.03
2019-02-10T08:34:50.526Z,93855.78
2019-02-10T08:37:53.803Z,93844.68
2019-02-10T08:41:10.449Z,93836.20
2019-02-10T08:44:17.227Z,93844.48
2019-02-10T08:47:35.698Z,93843.98
2019-02-10T08:50:42.003Z,93844.02
2019-02-10T08:53:31.592Z,93852.02
2019-02-10T08:55:59.436Z,93853.89
2019-02-10T08:58:28.326Z,93852.73
2019-02-10T09:00:56.939Z,93842.08
2019-02-10T09:03:25.682Z,93843.16
2019-02-10T09:05:54.940Z,93841.59
2019-02-10T09:08:29.001Z,93836.56
2019-02-10T09:11:02.060Z,93832.52
2019-02-10T09:13:35.303Z,93834.87
2019-02-10T09:16:08.273Z,93820.59
2019-02-10T09:18:39.913Z,93830.17
2019-02-10T09:21:09.683Z,93826.52
2019-02-10T09:23:38.847Z,93823.82
2019-02-10T09:26:09.341Z,93817.56
2019-02-10T09:28:38.869Z,93815.77
2019-02-10T09:31:08.588Z,93820.52
2019-02-10T09:33:37.774Z,93815.67
2019-02-10T09:36:06.052Z,93811.33
2019-02-10T09:38:37.430Z,93815.31
2019-02-10T09:41:08.942Z,93817.14
2019-02-10T09:43:40.765Z,93814.33
2019-02-10T09:46:12.049Z,93808.77
2019-02-10T09:48:42.970Z,93813.16
2019-02-10T09:51:16.093Z,93808.00
2019-02-10T09:53:48.483Z,93811.36
2019-02-10T09:56:19.511Z,93807.32
2019-02-10T09:58:52.035Z,93807.59
2019-02-10T10:01:22.760Z,93808.67
2019-02-10T10:04:00.233Z,93804.92
2019-02-10T10:06:45.864Z,93798.39
2019-02-10T10:09:32.065Z,93788.20
2019-02-10T10:12:07.194Z,93779.14
2019-02-10T10:14:38.478Z,93786.67
2019-02-10T10:17:13.473Z,93781.22
2019-02-10T10:19:50.716Z,93784.25
2019-02-10T10:22:26.035Z,93781.16
2019-02-10T10:24:55.230Z,93780.98
2019-02-10T10:27:23.026Z,93776.19
2019-02-10T10:29:51.208Z,93770.40
2019-02-10T10:32:18.976Z,93765.66
2019-02-10T10:34:46.694Z,93769.06
2019-02-10T10:37:14.420Z,93760.70
2019-02-10T10:39:43.281Z,93756.41
2019-02-10T10:42:11.031Z,93754.19
2019-02-10T10:44:38.921Z,93760.48
2019-02-10T10:47:06.680Z,93751.67
2019-02-10T10:49:36.648Z,93745.96
2019-02-10T10:52:04.519Z,93744.52
2019-02-10T10:54:32.693Z,93734.02
2019-02-10T10:57:00.420Z,93734.86
2019-02-10T10:59:28.583Z,93729.30
2019-02-10T11:01:56.390Z,93724.00
2019-02-10T11:04:24.129Z,93716.11
2019-02-10T11:06:51.853Z,93716.59
2019-02-10T11:09:19.756Z,93717.64
2019-02-10T11:11:47.689Z,93713.14
2019-02-10T11:14:15.588Z,93708.50
2019-02-10T11:16:43.248Z,93706.50
2019-02-10T11:19:12.435Z,93700.27
2019-02-10T11:21:54.315Z,93702.67
2019-02-10T11:24:29.013Z,93699.10
2019-02-10T11:26:57.645Z,93693.89
2019-02-10T11:29:25.465Z,93694.21
2019-02-10T11:31:53.272Z,93694.31
2019-02-10T11:34:21.729Z,93685.97
2019-02-10T11:36:49.524Z,93681.27
2019-02-10T11:39:17.252Z,93683.47
2019-02-10T11:41:48.954Z,93677.31
2019-02-10T11:44:16.718Z,93676.66
2019-02-10T11:46:44.286Z,93669.88
2019-02-10T11:49:12.187Z,93670.45
2019-02-10T11:51:40.000Z,93668.42
2019-02-10T11:54:07.732Z,93666.76
2019-02-10T11:56:35.325Z,93662.14
2019-02-10T11:59:03.597Z,93664.62
2019-02-10T12:01:32.448Z,93657.04
2019-02-10T12:04:00.467Z,93649.91
2019-02-10T12:06:28.157Z,93644.23
2019-02-10T12:08:56.211Z,93644.03
2019-02-10T12:11:24.016Z,93640.05
2019-02-10T12:13:51.766Z,93634.51
2019-02-10T12:16:19.752Z,93637.67
2019-02-10T12:18:47.386Z,93627.23
2019-02-10T12:21:15.443Z,93627.97
2019-02-10T12:23:43.431Z,93617.96
2019-02-10T12:26:11.358Z,93611.12
2019-02-10T12:28:39.308Z,93612.93
2019-02-10T12:31:09.648Z,93609.84
2019-02-10T12:33:37.308Z,93596.44
2019-02-10T12:36:05.015Z,93591.80
2019-02-10T12:38:32.517Z,93593.81
2019-02-10T12:41:00.515Z,93595.05
2019-02-10T12:43:28.242Z,93593.14
2019-02-10T12:45:56.154Z,93580.86
2019-02-10T12:48:23.767Z,93584.83
2019-02-10T12:50:51.688Z,93582.45
2019-02-10T12:53:19.433Z,93579.12
2019-02-10T12:55:47.204Z,93586.25
2019-02-10T12:58:14.789Z,93581.05
2019-02-10T13:00:43.650Z,93578.95
2019-02-10T13:03:11.447Z,93579.22
2019-02-10T13:05:39.045Z,93579.12
2019-02-10T13:08:06.935Z,93578.36
2019-02-10T13:10:34.782Z,93574.84
2019-02-10T13:13:02.686Z,93568.81
2019-02-10T13:15:30.467Z,93568.27
2019-02-10T13:17:58.063Z,93566.63
2019-02-10T13:20:30.771Z,93567.54
2019-02-10T13:22:58.407Z,93566.27
2019-02-10T13:25:28.070Z,93567.45
2019-02-10T13:27:55.789Z,93569.78
2019-02-10T13:30:23.976Z,93558.44
2019-02-10T13:32:52.010Z,93567.97
2019-02-10T13:35:19.813Z,93559.63
2019-02-10T13:37:47.590Z,93558.31
2019-02-10T13:40:22.713Z,93559.10
2019-02-10T13:42:50.748Z,93550.82
2019-02-10T13:45:19.013Z,93547.50
2019-02-10T13:47:46.818Z,93536.96
2019-02-10T13:50:16.992Z,93542.69
2019-02-10T13:52:48.487Z,93544.03
2019-02-10T13:55:16.838Z,93539.96
2019-02-10T13:57:44.471Z,93535.98
2019-02-10T14:00:14.336Z,93538.08
2019-02-10T14:02:41.924Z,93534.53
2019-02-10T14:05:09.868Z,93529.27
2019-02-10T14:07:37.501Z,93527.67
2019-02-10T14:10:05.417Z,93523.69
2019-02-10T14:12:33.273Z,93529.66
2019-02-10T14:15:00.866Z,93522.87
2019-02-10T14:17:28.638Z,93525.08
2019-02-10T14:19:57.987Z,93515.55
2019-02-10T14:22:25.629Z,93512.39
2019-02-10T14:24:53.282Z,93508.53
2019-02-10T14:27:20.947Z,93505.93
2019-02-10T14:29:48.563Z,93506.94
2019-02-10T14:32:19.252Z,93507.14
2019-02-10T14:34:46.806Z,93498.44
2019-02-10T14:37:14.496Z,93498.52
2019-02-10T14:39:42.103Z,93498.70
2019-02-10T14:42:10.613Z,93493.61
2019-02-10T14:44:38.908Z,93495.35
2019-02-10T14:47:06.646Z,93500.36
2019-02-10T14:49:34.408Z,93492.47
2019-02-10T14:52:02.391Z,93492.69
2019-02-10T14:54:30.051Z,93487.47
2019-02-10T14:56:57.779Z,93475.02
2019-02-10T14:59:25.533Z,93473.72
2019-02-10T15:01:53.291Z,93472.80
2019-02-10T15:04:20.904Z,93476.66
2019-02-10T15:06:48.416Z,93475.07
2019-02-10T15:09:15.923Z,93473.70
2019-02-10T15:11:43.750Z,93476.56
2019-02-10T15:14:11.288Z,93482.47
2019-02-10T15:16:38.966Z,93483.27
2019-02-10T15:19:06.768Z,93477.53
2019-02-10T15:21:34.546Z,93473.53
2019-02-10T15:24:02.264Z,93482.70
2019-02-10T15:26:30.324Z,93475.83
2019-02-10T15:28:58.053Z,93466.06
2019-02-10T15:31:25.726Z,93464.35
2019-02-10T15:33:53.235Z,93467.73
2019-02-10T15:36:21.018Z,93460.08
2019-02-10T15:38:48.604Z,93470.16
2019-02-10T15:41:16.080Z,93466.38
2019-02-10T15:43:44.033Z,93472.25
2019-02-10T15:46:11.582Z,93473.77
2019-02-10T15:48:39.073Z,93464.77
2019-02-10T15:51:06.653Z,93471.95
2019-02-10T15:53:34.379Z,93477.81
2019-02-10T15:56:05.516Z,93479.63
2019-02-10T15:58:41.214Z,93470.28
2019-02-10T16:01:09.963Z,93473.75
2019-02-10T16:03:37.656Z,93472.05
2019-02-10T16:06:05.272Z,93471.55
2019-02-10T16:08:32.887Z,93472.09
2019-02-10T16:11:00.648Z,93464.28
2019-02-10T16:13:28.554Z,93459.73
2019-02-10T16:15:56.390Z,93466.53
2019-02-10T16:18:24.080Z,93459.16
2019-02-10T16:20:51.802Z,93464.95
2019-02-10T16:23:19.738Z,93464.75
2019-02-10T16:25:47.432Z,93462.18
2019-02-10T16:28:15.118Z,93462.39
2019-02-10T16:30:42.766Z,93457.94
2019-02-10T16:33:10.642Z,93462.25
2019-02-10T16:35:38.472Z,93455.08
2019-02-10T16:38:06.478Z,93453.87
2019-02-10T16:40:34.247Z,93453.80
2019-02-10T16:43:03.144Z,93449.59
2019-02-10T16:45:31.115Z,93457.68
2019-02-10T16:47:58.866Z,93451.21
2019-02-10T16:50:26.991Z,93447.46
2019-02-10T16:52:54.771Z,93456.57
2019-02-10T16:55:22.530Z,93449.19
2019-02-10T16:57:50.750Z,93448.14
2019-02-10T17:00:18.488Z,93457.33
2019-02-10T17:02:46.324Z,93453.84
2019-02-10T17:05:14.314Z,93455.44
2019-02-10T17:07:41.999Z,93448.00
2019-02-10T17:10:11.023Z,93455.89
2019-02-10T17:12:38.771Z,93444.54
2019-02-10T17:15:10.394Z,93446.77
2019-02-10T17:17:38.063Z,93446.70
2019-02-10T17:20:06.711Z,93439.70
2019-02-10T17:22:34.512Z,93439.02
2019-02-10T17:25:02.194Z,93433.02
2019-02-10T17:27:29.944Z,93433.49
2019-02-10T17:29:57.627Z,93432.81
2019-02-10T17:32:25.335Z,93429.83
2019-02-10T17:34:53.572Z,93435.61
2019-02-10T17:37:21.217Z,93440.09
2019-02-10T17:39:48.972Z,93431.41
2019-02-10T17:42:16.694Z,93440.05
2019-02-10T17:44:44.405Z,93438.34
2019-02-10T17:47:12.115Z,93432.09
2019-02-10T17:49:40.130Z,93435.61
2019-02-10T17:52:08.247Z,93441.32
2019-02-10T17:54:36.213Z,93433.64
2019-02-10T17:57:04.189Z,93430.80
2019-02-10T17:59:32.156Z,93444.94
2019-02-10T18:01:59.827Z,93438.63
2019-02-10T18:04:27.777Z,93438.16
2019-02-10T18:06:55.424Z,93436.25
2019-02-10T18:09:23.133Z,93438.16
2019-02-10T18:11:50.790Z,93433.23
2019-02-10T18:14:38.117Z,93422.66
2019-02-10T18:17:27.172Z,93424.55
2019-02-10T18:20:17.557Z,93416.44
2019-02-10T18:23:03.962Z,93416.52
2019-02-10T18:25:51.321Z,93418.20
2019-02-10T18:28:38.623Z,93420.17
2019-02-10T18:31:24.601Z,93416.44
2019-02-10T18:34:01.544Z,93404.71
2019-02-10T18:36:42.118Z,93403.91
2019-02-10T18:39:27.438Z,93409.20
2019-02-10T18:42:08.039Z,93402.98
2019-02-10T18:44:45.351Z,93399.11
2019-02-10T18:47:32.908Z,93394.27
2019-02-10T18:50:13.482Z,93391.59
2019-02-10T18:53:03.585Z,93387.97
2019-02-10T18:55:50.879Z,93390.02
2019-02-10T18:58:27.986Z,93388.13
2019-02-10T19:01:27.303Z,93397.23
2019-02-10T19:04:06.491Z,93396.79
2019-02-10T19:06:43.225Z,93397.02
2019-02-10T19:09:36.532Z,93393.68
2019-02-10T19:12:18.638Z,93390.18
2019-02-10T19:15:11.987Z,93387.52
2019-02-10T19:18:11.323Z,93397.39
2019-02-10T19:21:01.503Z,93396.46
2019-02-10T19:23:54.890Z,93404.06
2019-02-10T19:26:42.120Z,93404.37
2019-02-10T19:29:38.412Z,93413.78
2019-02-10T19:32:15.259Z,93406.80
2019-02-10T19:35:06.465Z,93407.95
2019-02-10T19:37:48.852Z,93412.02
2019-02-10T19:40:51.025Z,93410.59
2019-02-10T19:43:36.519Z,93411.95
2019-02-10T19:46:22.492Z,93406.56
2019-02-10T19:49:07.872Z,93402.07
2019-02-10T19:51:53.521Z,93407.33
2019-02-10T19:54:39.524Z,93396.74
2019-02-10T19:57:24.163Z,93385.86
2019-02-10T20:00:11.704Z,93370.69
2019-02-10T20:02:53.159Z,93363.73
2019-02-10T20:05:40.422Z,93367.84
2019-02-10T20:08:33.433Z,93371.05
2019-02-10T20:11:15.180Z,93382.98
2019-02-10T20:13:51.791Z,93384.20
2019-02-10T20:16:29.606Z,93385.27
2019-02-10T20:19:12.546Z,93390.69
2019-02-10T20:21:54.534Z,93402.16
2019-02-10T20:24:30.908Z,93394.98
2019-02-10T20:27:27.568Z,93391.36
2019-02-10T20:30:29.978Z,93383.58
2019-02-10T20:33:29.387Z,93383.48
2019-02-10T20:36:15.521Z,93375.18
2019-02-10T20:39:08.416Z,93366.79
2019-02-10T20:41:54.283Z,93366.41
2019-02-10T20:44:44.550Z,93363.47
2019-02-10T20:47:30.760Z,93358.84
2019-02-10T20:50:21.025Z,93349.55
2019-02-10T20:53:08.297Z,93351.28
2019-02-10T20:55:58.294Z,93346.65
2019-02-10T20:59:03.683Z,93343.61
2019-02-10T21:02:03.096Z,93339.77
2019-02-10T21:04:48.816Z,93326.09
2019-02-10T21:07:26.235Z,93333.98
2019-02-10T21:10:08.194Z,93333.19
2019-02-10T21:12:53.751Z,93336.07
2019-02-10T21:15:50.334Z,93334.69
2019-02-10T21:18:26.918Z,93324.31
2019-02-10T21:21:25.774Z,93313.44
2019-02-10T21:24:03.964Z,93310.63
2019-02-10T21:26:38.854Z,93309.61
2019-02-10T21:29:24.342Z,93311.73
2019-02-10T21:32:07.585Z,93320.52
2019-02-10T21:34:46.450Z,93321.52
2019-02-10T21:37:21.706Z,93318.54
2019-02-10T21:40:05.992Z,93309.78
2019-02-10T21:42:49.509Z,93308.61
2019-02-10T21:45:28.905Z,93307.00
2019-02-10T21:48:06.942Z,93308.77
2019-02-10T21:50:34.569Z,93299.34
2019-02-10T21:53:02.148Z,93301.87
2019-02-10T21:55:29.722Z,93296.81
2019-02-10T21:57:57.296Z,93292.26
2019-02-10T22:00:25.032Z,93286.44
2019-02-10T22:02:52.608Z,93281.97
2019-02-10T22:05:20.082Z,93272.63
2019-02-10T22:07:47.672Z,93272.83
2019-02-10T22:10:15.310Z,93273.83
2019-02-10T22:12:43.989Z,93269.10
2019-02-10T22:15:11.568Z,93259.90
2019-02-10T22:17:39.182Z,93256.55
2019-02-10T22:20:08.817Z,93249.52
2019-02-10T22:22:36.277Z,93256.02
2019-02-10T22:25:04.013Z,93250.00
2019-02-10T22:27:31.480Z,93247.93
2019-02-10T22:29:58.938Z,93250.77
2019-02-10T22:32:26.406Z,93243.30
2019-02-10T22:34:53.906Z,93246.24
2019-02-10T22:37:21.358Z,93252.62
2019-02-10T22:39:48.826Z,93247.20
2019-02-10T22:42:16.266Z,93248.69
2019-02-10T22:44:43.826Z,93234.61
2019-02-10T22:47:11.250Z,93233.55
2019-02-10T22:49:38.821Z,93236.87
2019-02-10T22:52:06.358Z,93238.04
2019-02-10T22:54:33.806Z,93234.23
2019-02-10T22:57:01.277Z,93234.70
2019-02-10T22:59:28.747Z,93234.72
2019-02-10T23:01:56.185Z,93233.09
2019-02-10T23:04:23.756Z,93226.73
2019-02-10T23:06:51.270Z,93218.28
2019-02-10T23:09:22.490Z,93216.74
2019-02-10T23:11:50.053Z,93207.34
2019-02-10T23:14:17.505Z,93215.11
2019-02-10T23:16:44.946Z,93215.73
2019-02-10T23:19:12.428Z,93219.25
2019-02-10T23:21:39.880Z,93222.70
2019-02-10T23:24:07.309Z,93228.87
2019-02-10T23:26:34.832Z,93226.77
2019-02-10T23:29:02.326Z,93229.13
2019-02-10T23:31:29.838Z,93224.32
2019-02-10T23:33:57.390Z,93227.52
2019-02-10T23:36:24.991Z,93217.64
2019-02-10T23:38:52.438Z,93212.23
2019-02-10T23:41:19.945Z,93209.82
2019-02-10T23:43:47.581Z,93210.62
2019-02-10T23:46:15.195Z,93210.50
2019-02-10T23:48:42.654Z,93212.23
2019-02-10T23:51:10.182Z,93215.98
2019-02-10T23:53:37.659Z,93232.11
2019-02-10T23:56:05.104Z,93231.50
2019-02-10T23:58:32.564Z,93239.40
